»·PEaware :: N515ZT KSAN-KSBA

N515ZT :: KSAN-KSBA

FLIGHT INFORMATION

Flight Status: Arrived
Operator: Privately registered:
United States
More flights under this callsign
Pilot: Marty P. (27464)
Aircraft: BEECH AIRCRAFT BARON
(BE58)
More flights by this aircraft type
Origin: KSAN San Diego Intl-Lindbergh
United States
Destination: KSBA Santa Barbara Mun
United States
More flights between these airports :: More routes between these airports
Route: +OCN SXC RIZIN
File this flight plan on PilotEdge
Remarks:
Altitude:
(Current/Filed)
12,500ft
Speed:
(Current/Filed)
180kts
Departed: 02-Feb-20 03:16 PM
Arrived: 02-Feb-20 04:23 PM
Distance/Time
Traveled:
167nm/1:06
Distance/Time
To Go:
Arrived

Flight Plot

Page will automatically refresh every two minutes.

Flight plan parsing failed; only flown route is shown


Map Options




Map Legend


Flown Route
Filed Route
Departure Airport
Arrival Airport
Navaid (VOR, NDB)
Fix

Horizontal Profiles

Position Reports

Time Latitude Longitude Heading Altitude Ground
Speed
02-Feb-20 15:00 32.732062 -117.193349 285 18ft 0kts
02-Feb-20 15:01 32.732062 -117.193349 285 18ft 0kts
02-Feb-20 15:02 32.732062 -117.193349 285 18ft 0kts
02-Feb-20 15:03 32.732062 -117.193349 285 18ft 0kts
02-Feb-20 15:04 32.732062 -117.193349 285 18ft 0kts
02-Feb-20 15:05 32.732062 -117.193349 285 18ft 0kts
02-Feb-20 15:06 32.732062 -117.193349 285 18ft 0kts
02-Feb-20 15:07 32.732062 -117.193349 285 18ft 0kts
02-Feb-20 15:08 32.732062 -117.193349 285 18ft 0kts
02-Feb-20 15:09 32.732120 -117.193184 116 18ft 4kts
02-Feb-20 15:11 32.732320 -117.188820 105 18ft 16kts
02-Feb-20 15:12 32.731272 -117.184487 106 18ft 16kts
02-Feb-20 15:13 32.730304 -117.180469 106 18ft 7kts
02-Feb-20 15:14 32.729605 -117.177627 106 18ft 15kts
02-Feb-20 15:15 32.729604 -117.176394 70 18ft 12kts
02-Feb-20 15:16 32.732946 -117.187409 277 67ft 110kts
02-Feb-20 15:17 32.758614 -117.207542 20 1069ft 155kts
02-Feb-20 15:18 32.802848 -117.220720 338 1498ft 184kts
02-Feb-20 15:19 32.846681 -117.240359 337 2569ft 160kts
02-Feb-20 15:20 32.887550 -117.258628 337 3540ft 155kts
02-Feb-20 15:21 32.929764 -117.277633 337 4211ft 157kts
02-Feb-20 15:22 32.969689 -117.295484 335 5085ft 151kts
02-Feb-20 15:23 33.010527 -117.313929 335 5474ft 171kts
02-Feb-20 15:24 33.055541 -117.334138 336 5948ft 156kts
02-Feb-20 15:25 33.094103 -117.351539 335 7074ft 148kts
02-Feb-20 15:26 33.130234 -117.367836 334 8172ft 142kts
02-Feb-20 15:27 33.166241 -117.384079 333 9240ft 138kts
02-Feb-20 15:27 33.195793 -117.397463 333 10070ft 135kts
02-Feb-20 15:29 33.234653 -117.416915 302 11134ft 124kts
02-Feb-20 15:30 33.244411 -117.454966 280 11978ft 119kts
02-Feb-20 15:31 33.250841 -117.494560 278 12475ft 142kts
02-Feb-20 15:31 33.256994 -117.537124 278 12464ft 166kts
02-Feb-20 15:32 33.264786 -117.593447 278 12462ft 174kts
02-Feb-20 15:34 33.273969 -117.660574 277 12465ft 176kts
02-Feb-20 15:34 33.280547 -117.709040 278 12476ft 177kts
02-Feb-20 15:35 33.288549 -117.767459 277 12531ft 175kts
02-Feb-20 15:36 33.295647 -117.820193 277 13313ft 145kts
02-Feb-20 15:38 33.302333 -117.870288 275 14418ft 118kts
02-Feb-20 15:38 33.307033 -117.905420 276 14551ft 145kts
02-Feb-20 15:39 33.313873 -117.956217 276 14540ft 161kts
02-Feb-20 15:40 33.321179 -118.010776 276 14534ft 169kts
02-Feb-20 15:41 33.328626 -118.066654 276 14528ft 171kts
02-Feb-20 15:42 33.336108 -118.123030 276 14526ft 171kts
02-Feb-20 15:43 33.343541 -118.179296 276 14533ft 171kts
02-Feb-20 15:44 33.350961 -118.235650 276 14544ft 171kts
02-Feb-20 15:45 33.358375 -118.292158 276 14544ft 171kts
02-Feb-20 15:46 33.365746 -118.348520 276 14544ft 171kts
02-Feb-20 15:47 33.372039 -118.396623 276 14300ft 134kts
02-Feb-20 15:48 33.388777 -118.432456 308 14546ft 133kts
02-Feb-20 15:49 33.417170 -118.464113 311 14507ft 152kts
02-Feb-20 15:50 33.450582 -118.499778 312 14500ft 166kts
02-Feb-20 15:51 33.485887 -118.537206 313 14385ft 179kts
02-Feb-20 15:52 33.527922 -118.581825 314 13090ft 216kts
02-Feb-20 15:53 33.573781 -118.630455 315 11854ft 221kts
02-Feb-20 15:54 33.618796 -118.678295 314 10709ft 222kts
02-Feb-20 15:55 33.662393 -118.724719 314 10505ft 197kts
02-Feb-20 15:56 33.702269 -118.768286 303 10503ft 188kts
02-Feb-20 15:57 33.731919 -118.819974 300 10513ft 185kts
02-Feb-20 15:58 33.762675 -118.869770 304 10532ft 183kts
02-Feb-20 15:59 33.794037 -118.918401 303 10382ft 190kts
02-Feb-20 16:00 33.827310 -118.970583 304 9446ft 200kts
02-Feb-20 16:01 33.861345 -119.024141 304 8403ft 202kts
02-Feb-20 16:02 33.892825 -119.073607 304 8540ft 175kts
02-Feb-20 16:03 33.922864 -119.120079 304 8543ft 182kts
02-Feb-20 16:04 33.954603 -119.169613 304 8539ft 190kts
02-Feb-20 16:05 33.986982 -119.220303 304 8531ft 188kts
02-Feb-20 16:06 34.019576 -119.272565 299 7501ft 200kts
02-Feb-20 16:07 34.048845 -119.329789 299 6477ft 197kts
02-Feb-20 16:08 34.075987 -119.383168 299 6514ft 181kts
02-Feb-20 16:09 34.121087 -119.402404 343 6417ft 176kts
02-Feb-20 16:10 34.170298 -119.414982 344 5186ft 182kts
02-Feb-20 16:11 34.217212 -119.427042 344 4515ft 163kts
02-Feb-20 16:12 34.262664 -119.438731 344 4518ft 169kts
02-Feb-20 16:13 34.308520 -119.450530 344 4553ft 170kts
02-Feb-20 16:14 34.351848 -119.469244 322 4537ft 166kts
02-Feb-20 16:15 34.388325 -119.507537 318 4012ft 183kts
02-Feb-20 16:16 34.412327 -119.561434 280 3095ft 198kts
02-Feb-20 16:17 34.415791 -119.627355 279 2508ft 186kts
02-Feb-20 16:18 34.419385 -119.688058 291 2497ft 175kts
02-Feb-20 16:19 34.428413 -119.746019 270 1786ft 187kts
02-Feb-20 16:20 34.428607 -119.799794 265 845ft 124kts
02-Feb-20 16:21 34.427842 -119.837291 268 17ft 77kts
02-Feb-20 16:22 34.428419 -119.845625 63 14ft 0kts

Navigation Log

Ident Type
Flight plan parsing failed, navigation log unavailable